sensor_id;sensor_type;location;lat;lon;timestamp;pressure;altitude;pressure_sealevel;temperature;humidity
70015;BME280;57358;51.094;6.760;2023-06-10T00:01:52;100686.13;;;19.09;68.57
70015;BME280;57358;51.094;6.760;2023-06-10T00:04:21;100630.66;;;18.74;68.52
70015;BME280;57358;51.094;6.760;2023-06-10T00:06:48;100694.50;;;19.05;68.74
70015;BME280;57358;51.094;6.760;2023-06-10T00:09:15;100590.41;;;18.38;68.83
70015;BME280;57358;51.094;6.760;2023-06-10T00:11:42;100697.84;;;18.97;69.46
70015;BME280;57358;51.094;6.760;2023-06-10T00:14:08;100685.16;;;18.80;69.62
70015;BME280;57358;51.094;6.760;2023-06-10T00:16:35;100706.06;;;18.84;70.11
70015;BME280;57358;51.094;6.760;2023-06-10T00:19:03;100713.44;;;18.81;70.58
70015;BME280;57358;51.094;6.760;2023-06-10T00:21:31;100718.81;;;18.69;71.61
70015;BME280;57358;51.094;6.760;2023-06-10T00:24:04;100727.31;;;18.63;72.28
70015;BME280;57358;51.094;6.760;2023-06-10T00:26:32;100725.31;;;18.56;72.42
70015;BME280;57358;51.094;6.760;2023-06-10T00:28:59;100667.94;;;18.22;72.46
70015;BME280;57358;51.094;6.760;2023-06-10T00:31:26;100685.53;;;18.23;72.81
70015;BME280;57358;51.094;6.760;2023-06-10T00:33:56;100659.22;;;17.99;73.80
70015;BME280;57358;51.094;6.760;2023-06-10T00:36:23;100723.75;;;18.32;73.47
70015;BME280;57358;51.094;6.760;2023-06-10T00:38:49;100662.81;;;17.88;73.80
70015;BME280;57358;51.094;6.760;2023-06-10T00:41:16;100663.78;;;17.76;74.15
70015;BME280;57358;51.094;6.760;2023-06-10T00:43:42;100733.75;;;18.19;75.19
70015;BME280;57358;51.094;6.760;2023-06-10T00:46:09;100729.06;;;18.11;75.04
70015;BME280;57358;51.094;6.760;2023-06-10T00:48:36;100734.50;;;18.09;75.68
70015;BME280;57358;51.094;6.760;2023-06-10T00:51:05;100716.03;;;17.87;76.21
70015;BME280;57358;51.094;6.760;2023-06-10T00:53:32;100707.47;;;17.83;76.44
70015;BME280;57358;51.094;6.760;2023-06-10T00:55:59;100748.69;;;17.99;76.50
70015;BME280;57358;51.094;6.760;2023-06-10T00:58:26;100696.63;;;17.64;77.20
70015;BME280;57358;51.094;6.760;2023-06-10T01:00:52;100682.00;;;17.48;77.32
70015;BME280;57358;51.094;6.760;2023-06-10T01:03:19;100751.84;;;17.81;78.58
70015;BME280;57358;51.094;6.760;2023-06-10T01:05:57;100755.59;;;17.79;78.72
70015;BME280;57358;51.094;6.760;2023-06-10T01:08:28;100750.69;;;17.74;79.20
70015;BME280;57358;51.094;6.760;2023-06-10T01:11:00;100616.31;;;16.86;79.00
70015;BME280;57358;51.094;6.760;2023-06-10T01:13:28;100752.38;;;17.64;78.91
70015;BME280;57358;51.094;6.760;2023-06-10T01:15:56;100749.00;;;17.62;79.28
70015;BME280;57358;51.094;6.760;2023-06-10T01:18:23;100695.78;;;17.20;79.87
70015;BME280;57358;51.094;6.760;2023-06-10T01:20:49;100762.19;;;17.52;80.14
70015;BME280;57358;51.094;6.760;2023-06-10T01:23:17;100749.16;;;17.38;80.80
70015;BME280;57358;51.094;6.760;2023-06-10T01:25:57;100768.81;;;17.46;81.34
70015;BME280;57358;51.094;6.760;2023-06-10T01:31:29;100757.59;;;17.43;81.37
70015;BME280;57358;51.094;6.760;2023-06-10T01:34:01;100757.25;;;17.36;81.64
70015;BME280;57358;51.094;6.760;2023-06-10T01:36:31;100754.84;;;17.33;81.21
70015;BME280;57358;51.094;6.760;2023-06-10T01:39:00;100762.31;;;17.28;81.24
70015;BME280;57358;51.094;6.760;2023-06-10T01:41:28;100754.84;;;17.22;82.27
70015;BME280;57358;51.094;6.760;2023-06-10T01:43:55;100767.88;;;17.13;82.57
70015;BME280;57358;51.094;6.760;2023-06-10T01:46:21;100705.78;;;16.71;82.99
70015;BME280;57358;51.094;6.760;2023-06-10T01:48:48;100759.31;;;16.99;83.42
70015;BME280;57358;51.094;6.760;2023-06-10T01:51:14;100722.25;;;16.63;84.96
70015;BME280;57358;51.094;6.760;2023-06-10T01:53:41;100771.50;;;16.90;85.09
70015;BME280;57358;51.094;6.760;2023-06-10T01:56:10;100717.44;;;16.57;86.24
70015;BME280;57358;51.094;6.760;2023-06-10T01:58:36;100765.91;;;16.82;86.59
70015;BME280;57358;51.094;6.760;2023-06-10T02:01:02;100764.13;;;16.82;86.98
70015;BME280;57358;51.094;6.760;2023-06-10T02:03:29;100690.19;;;16.32;86.25
70015;BME280;57358;51.094;6.760;2023-06-10T02:05:56;100770.72;;;16.77;86.78
70015;BME280;57358;51.094;6.760;2023-06-10T02:08:22;100717.88;;;16.40;87.01
70015;BME280;57358;51.094;6.760;2023-06-10T02:10:48;100772.88;;;16.71;87.15
70015;BME280;57358;51.094;6.760;2023-06-10T02:13:15;100764.19;;;16.69;87.02
70015;BME280;57358;51.094;6.760;2023-06-10T02:15:41;100765.16;;;16.68;87.70
70015;BME280;57358;51.094;6.760;2023-06-10T02:18:08;100737.44;;;16.50;87.80
70015;BME280;57358;51.094;6.760;2023-06-10T02:20:35;100762.63;;;16.67;87.57
70015;BME280;57358;51.094;6.760;2023-06-10T02:23:02;100780.66;;;16.62;86.69
70015;BME280;57358;51.094;6.760;2023-06-10T02:25:28;100771.16;;;16.59;87.73
70015;BME280;57358;51.094;6.760;2023-06-10T02:27:55;100781.03;;;16.57;87.64
70015;BME280;57358;51.094;6.760;2023-06-10T02:30:21;100731.47;;;16.24;87.42
70015;BME280;57358;51.094;6.760;2023-06-10T02:32:48;100790.53;;;16.48;87.56
70015;BME280;57358;51.094;6.760;2023-06-10T02:35:15;100768.56;;;16.35;87.41
70015;BME280;57358;51.094;6.760;2023-06-10T02:37:41;100731.38;;;16.01;87.30
70015;BME280;57358;51.094;6.760;2023-06-10T02:40:09;100799.63;;;16.33;87.70
70015;BME280;57358;51.094;6.760;2023-06-10T02:42:36;100745.31;;;15.92;87.68
70015;BME280;57358;51.094;6.760;2023-06-10T02:45:03;100805.66;;;16.11;88.86
70015;BME280;57358;51.094;6.760;2023-06-10T02:47:30;100747.19;;;15.66;90.15
70015;BME280;57358;51.094;6.760;2023-06-10T02:49:56;100822.25;;;16.02;91.62
70015;BME280;57358;51.094;6.760;2023-06-10T02:52:23;100818.63;;;16.03;92.73
70015;BME280;57358;51.094;6.760;2023-06-10T02:54:49;100814.06;;;16.05;92.93
70015;BME280;57358;51.094;6.760;2023-06-10T02:57:16;100818.88;;;16.00;92.98
70015;BME280;57358;51.094;6.760;2023-06-10T02:59:42;100822.44;;;15.99;93.63
70015;BME280;57358;51.094;6.760;2023-06-10T03:02:11;100815.69;;;15.94;92.83
70015;BME280;57358;51.094;6.760;2023-06-10T03:04:37;100829.44;;;16.00;92.96
70015;BME280;57358;51.094;6.760;2023-06-10T03:07:04;100833.03;;;15.99;93.84
70015;BME280;57358;51.094;6.760;2023-06-10T03:09:33;100828.38;;;16.02;93.24
70015;BME280;57358;51.094;6.760;2023-06-10T03:11:59;100825.84;;;16.01;93.12
70015;BME280;57358;51.094;6.760;2023-06-10T03:14:27;100800.47;;;15.85;92.75
70015;BME280;57358;51.094;6.760;2023-06-10T03:16:54;100820.34;;;15.91;93.37
70015;BME280;57358;51.094;6.760;2023-06-10T03:19:20;100842.78;;;15.98;93.29
70015;BME280;57358;51.094;6.760;2023-06-10T03:21:59;100849.38;;;15.92;93.01
70015;BME280;57358;51.094;6.760;2023-06-10T03:24:32;100841.94;;;15.98;93.00
70015;BME280;57358;51.094;6.760;2023-06-10T03:26:59;100850.63;;;16.00;92.80
70015;BME280;57358;51.094;6.760;2023-06-10T03:29:26;100846.16;;;16.00;92.93
70015;BME280;57358;51.094;6.760;2023-06-10T03:31:53;100849.03;;;15.97;92.62
70015;BME280;57358;51.094;6.760;2023-06-10T03:34:19;100846.81;;;15.91;92.63
70015;BME280;57358;51.094;6.760;2023-06-10T03:36:46;100852.47;;;15.86;93.28
70015;BME280;57358;51.094;6.760;2023-06-10T03:39:12;100866.31;;;15.90;93.39
70015;BME280;57358;51.094;6.760;2023-06-10T03:41:39;100827.88;;;15.71;93.70
70015;BME280;57358;51.094;6.760;2023-06-10T03:44:05;100869.16;;;16.00;94.41
70015;BME280;57358;51.094;6.760;2023-06-10T03:46:31;100878.78;;;16.01;93.92
70015;BME280;57358;51.094;6.760;2023-06-10T03:48:58;100875.78;;;16.05;94.64
70015;BME280;57358;51.094;6.760;2023-06-10T03:51:27;100883.53;;;16.08;93.70
70015;BME280;57358;51.094;6.760;2023-06-10T03:53:53;100885.53;;;16.05;94.39
70015;BME280;57358;51.094;6.760;2023-06-10T03:56:20;100888.81;;;16.08;94.65
70015;BME280;57358;51.094;6.760;2023-06-10T03:58:46;100883.06;;;16.14;93.64
70015;BME280;57358;51.094;6.760;2023-06-10T04:01:13;100791.28;;;15.65;93.29
70015;BME280;57358;51.094;6.760;2023-06-10T04:03:39;100884.72;;;16.28;93.14
70015;BME280;57358;51.094;6.760;2023-06-10T04:06:07;100894.56;;;16.26;92.67
70015;BME280;57358;51.094;6.760;2023-06-10T04:08:34;100891.94;;;16.50;92.22
70015;BME280;57358;51.094;6.760;2023-06-10T04:11:02;100898.44;;;17.17;91.12
70015;BME280;57358;51.094;6.760;2023-06-10T04:13:28;100886.50;;;17.68;88.27
70015;BME280;57358;51.094;6.760;2023-06-10T04:15:54;100888.00;;;18.38;84.85
70015;BME280;57358;51.094;6.760;2023-06-10T04:18:21;100811.00;;;18.48;80.99
70015;BME280;57358;51.094;6.760;2023-06-10T04:20:50;100862.81;;;19.38;77.46
70015;BME280;57358;51.094;6.760;2023-06-10T04:23:17;100800.81;;;19.57;74.86
70015;BME280;57358;51.094;6.760;2023-06-10T04:25:43;100848.75;;;20.36;72.72
70015;BME280;57358;51.094;6.760;2023-06-10T04:28:10;100760.53;;;20.10;70.20
70015;BME280;57358;51.094;6.760;2023-06-10T04:30:36;100802.63;;;20.65;68.99
70015;BME280;57358;51.094;6.760;2023-06-10T04:33:02;100808.56;;;21.06;68.40
70015;BME280;57358;51.094;6.760;2023-06-10T04:35:29;100800.25;;;21.46;67.25
70015;BME280;57358;51.094;6.760;2023-06-10T04:37:55;100791.47;;;21.82;65.50
70015;BME280;57358;51.094;6.760;2023-06-10T04:40:22;100730.78;;;21.92;64.62
70015;BME280;57358;51.094;6.760;2023-06-10T04:42:49;100756.03;;;22.52;63.59
70015;BME280;57358;51.094;6.760;2023-06-10T04:45:15;100726.13;;;22.56;61.97
70015;BME280;57358;51.094;6.760;2023-06-10T04:47:42;100727.06;;;22.73;61.44
70015;BME280;57358;51.094;6.760;2023-06-10T04:50:08;100730.88;;;22.97;60.89
70015;BME280;57358;51.094;6.760;2023-06-10T04:52:35;100728.72;;;23.35;60.95
70015;BME280;57358;51.094;6.760;2023-06-10T04:55:01;100666.25;;;23.18;59.18
70015;BME280;57358;51.094;6.760;2023-06-10T04:57:28;100709.19;;;23.67;58.63
70015;BME280;57358;51.094;6.760;2023-06-10T04:59:54;100619.25;;;23.32;57.73
70015;BME280;57358;51.094;6.760;2023-06-10T05:02:21;100655.44;;;23.60;57.80
70015;BME280;57358;51.094;6.760;2023-06-10T05:04:47;100587.13;;;23.48;57.66
70015;BME280;57358;51.094;6.760;2023-06-10T05:07:14;100618.44;;;23.88;56.46
70015;BME280;57358;51.094;6.760;2023-06-10T05:09:40;100622.63;;;23.50;57.01
70015;BME280;57358;51.094;6.760;2023-06-10T05:12:07;100603.34;;;23.55;56.85
70015;BME280;57358;51.094;6.760;2023-06-10T05:14:35;100686.50;;;24.84;56.11
70015;BME280;57358;51.094;6.760;2023-06-10T05:17:01;100622.91;;;25.16;53.84
70015;BME280;57358;51.094;6.760;2023-06-10T05:19:27;100616.34;;;25.19;53.46
70015;BME280;57358;51.094;6.760;2023-06-10T05:21:54;100592.72;;;25.37;52.49
70015;BME280;57358;51.094;6.760;2023-06-10T05:24:20;100572.44;;;24.80;52.65
70015;BME280;57358;51.094;6.760;2023-06-10T05:26:47;100633.75;;;25.31;53.04
70015;BME280;57358;51.094;6.760;2023-06-10T05:29:15;100606.16;;;25.60;51.87
70015;BME280;57358;51.094;6.760;2023-06-10T05:31:44;100590.69;;;25.62;51.21
70015;BME280;57358;51.094;6.760;2023-06-10T05:34:10;100627.34;;;25.78;51.67
70015;BME280;57358;51.094;6.760;2023-06-10T05:36:37;100613.63;;;26.11;49.88
70015;BME280;57358;51.094;6.760;2023-06-10T05:39:03;100616.50;;;26.69;49.20
70015;BME280;57358;51.094;6.760;2023-06-10T05:41:32;100587.97;;;26.90;48.27
70015;BME280;57358;51.094;6.760;2023-06-10T05:43:58;100527.09;;;26.74;47.33
70015;BME280;57358;51.094;6.760;2023-06-10T05:46:25;100506.03;;;26.26;47.61
70015;BME280;57358;51.094;6.760;2023-06-10T05:48:51;100600.53;;;26.67;47.81
70015;BME280;57358;51.094;6.760;2023-06-10T05:51:18;100582.53;;;26.53;47.92
70015;BME280;57358;51.094;6.760;2023-06-10T05:53:44;100627.19;;;27.14;47.12
70015;BME280;57358;51.094;6.760;2023-06-10T05:56:13;100549.69;;;27.16;46.44
70015;BME280;57358;51.094;6.760;2023-06-10T05:58:40;100635.91;;;28.02;45.12
70015;BME280;57358;51.094;6.760;2023-06-10T06:01:07;100529.56;;;27.55;45.30
70015;BME280;57358;51.094;6.760;2023-06-10T06:03:33;100622.81;;;27.49;46.44
70015;BME280;57358;51.094;6.760;2023-06-10T06:06:00;100613.91;;;27.49;45.90
70015;BME280;57358;51.094;6.760;2023-06-10T06:08:26;100681.00;;;28.08;46.12
70015;BME280;57358;51.094;6.760;2023-06-10T06:10:53;100615.28;;;27.66;45.61
70015;BME280;57358;51.094;6.760;2023-06-10T06:13:19;100693.13;;;28.19;46.32
70015;BME280;57358;51.094;6.760;2023-06-10T06:15:45;100683.28;;;28.33;45.34
70015;BME280;57358;51.094;6.760;2023-06-10T06:18:12;100669.56;;;28.62;45.18
70015;BME280;57358;51.094;6.760;2023-06-10T06:20:38;100662.03;;;28.99;43.85
70015;BME280;57358;51.094;6.760;2023-06-10T06:23:05;100638.00;;;29.11;43.34
70015;BME280;57358;51.094;6.760;2023-06-10T06:25:31;100606.69;;;28.40;44.31
70015;BME280;57358;51.094;6.760;2023-06-10T06:27:58;100634.59;;;27.91;45.76
70015;BME280;57358;51.094;6.760;2023-06-10T06:30:24;100616.28;;;27.58;45.97
70015;BME280;57358;51.094;6.760;2023-06-10T06:32:50;100483.25;;;26.43;46.37
70015;BME280;57358;51.094;6.760;2023-06-10T06:35:18;100558.78;;;26.42;47.11
70015;BME280;57358;51.094;6.760;2023-06-10T06:37:44;100557.41;;;26.01;47.71
70015;BME280;57358;51.094;6.760;2023-06-10T06:40:11;100588.97;;;25.84;48.48
70015;BME280;57358;51.094;6.760;2023-06-10T06:42:38;100540.56;;;25.70;47.12
70015;BME280;57358;51.094;6.760;2023-06-10T06:45:05;100551.94;;;25.57;47.70
70015;BME280;57358;51.094;6.760;2023-06-10T06:47:31;100542.56;;;25.53;47.21
70015;BME280;57358;51.094;6.760;2023-06-10T06:49:58;100537.31;;;25.13;48.10
70015;BME280;57358;51.094;6.760;2023-06-10T06:52:24;100501.81;;;25.03;46.97
70015;BME280;57358;51.094;6.760;2023-06-10T06:54:53;100590.41;;;25.34;47.82
70015;BME280;57358;51.094;6.760;2023-06-10T06:57:19;100551.94;;;25.34;47.34
70015;BME280;57358;51.094;6.760;2023-06-10T06:59:46;100508.69;;;25.28;46.83
70015;BME280;57358;51.094;6.760;2023-06-10T07:02:12;100547.22;;;25.36;46.88
70015;BME280;57358;51.094;6.760;2023-06-10T07:04:39;100533.38;;;25.01;47.89
70015;BME280;57358;51.094;6.760;2023-06-10T07:07:07;100591.59;;;25.32;47.68
70015;BME280;57358;51.094;6.760;2023-06-10T07:09:37;100538.28;;;25.20;46.79
70015;BME280;57358;51.094;6.760;2023-06-10T07:12:04;100516.00;;;25.12;46.81
70015;BME280;57358;51.094;6.760;2023-06-10T07:14:31;100492.13;;;24.94;46.63
70015;BME280;57358;51.094;6.760;2023-06-10T07:16:58;100605.56;;;25.27;47.35
70015;BME280;57358;51.094;6.760;2023-06-10T07:19:26;100480.69;;;24.54;47.12
70015;BME280;57358;51.094;6.760;2023-06-10T07:21:53;100524.16;;;25.26;46.55
70015;BME280;57358;51.094;6.760;2023-06-10T07:24:19;100563.75;;;25.47;46.45
70015;BME280;57358;51.094;6.760;2023-06-10T07:26:46;100574.50;;;25.71;46.09
70015;BME280;57358;51.094;6.760;2023-06-10T07:29:13;100532.53;;;25.84;45.22
70015;BME280;57358;51.094;6.760;2023-06-10T07:31:41;100530.78;;;25.92;44.74
70015;BME280;57358;51.094;6.760;2023-06-10T07:34:07;100509.81;;;25.72;44.96
70015;BME280;57358;51.094;6.760;2023-06-10T07:36:34;100536.88;;;25.85;45.10
70015;BME280;57358;51.094;6.760;2023-06-10T07:39:00;100485.47;;;25.51;44.67
70015;BME280;57358;51.094;6.760;2023-06-10T07:41:27;100528.50;;;25.65;45.00
70015;BME280;57358;51.094;6.760;2023-06-10T07:43:54;100506.16;;;25.65;44.44
70015;BME280;57358;51.094;6.760;2023-06-10T07:46:22;100525.94;;;25.72;44.93
70015;BME280;57358;51.094;6.760;2023-06-10T07:48:48;100501.44;;;25.67;44.36
70015;BME280;57358;51.094;6.760;2023-06-10T07:51:16;100650.78;;;25.93;46.35
70015;BME280;57358;51.094;6.760;2023-06-10T07:53:43;100551.53;;;25.98;45.03
70015;BME280;57358;51.094;6.760;2023-06-10T07:56:09;100561.22;;;26.07;44.71
70015;BME280;57358;51.094;6.760;2023-06-10T07:58:35;100606.56;;;26.10;45.03
70015;BME280;57358;51.094;6.760;2023-06-10T08:01:02;100543.59;;;26.19;43.72
70015;BME280;57358;51.094;6.760;2023-06-10T08:03:28;100520.38;;;26.48;42.85
70015;BME280;57358;51.094;6.760;2023-06-10T08:05:55;100521.66;;;26.52;43.14
70015;BME280;57358;51.094;6.760;2023-06-10T08:08:21;100538.84;;;26.21;43.97
70015;BME280;57358;51.094;6.760;2023-06-10T08:10:48;100484.31;;;25.98;43.69
70015;BME280;57358;51.094;6.760;2023-06-10T08:13:15;100528.09;;;26.21;43.23
70015;BME280;57358;51.094;6.760;2023-06-10T08:15:42;100502.00;;;26.37;42.53
70015;BME280;57358;51.094;6.760;2023-06-10T08:18:08;100459.50;;;26.47;41.98
70015;BME280;57358;51.094;6.760;2023-06-10T08:20:35;100500.03;;;26.45;42.14
70015;BME280;57358;51.094;6.760;2023-06-10T08:23:01;100444.63;;;26.15;41.99
70015;BME280;57358;51.094;6.760;2023-06-10T08:25:28;100519.41;;;26.56;42.50
70015;BME280;57358;51.094;6.760;2023-06-10T08:27:54;100525.03;;;26.76;42.09
70015;BME280;57358;51.094;6.760;2023-06-10T08:30:22;100465.94;;;26.31;42.25
70015;BME280;57358;51.094;6.760;2023-06-10T08:32:52;100535.66;;;26.47;42.51
70015;BME280;57358;51.094;6.760;2023-06-10T08:35:18;100443.69;;;26.22;41.78
70015;BME280;57358;51.094;6.760;2023-06-10T08:37:45;100529.88;;;26.80;41.60
70015;BME280;57358;51.094;6.760;2023-06-10T08:40:12;100471.25;;;26.61;41.48
70015;BME280;57358;51.094;6.760;2023-06-10T08:42:53;100582.97;;;26.72;43.00
70015;BME280;57358;51.094;6.760;2023-06-10T08:45:29;100605.63;;;27.29;42.08
70015;BME280;57358;51.094;6.760;2023-06-10T08:47:57;100495.16;;;27.14;40.97
70015;BME280;57358;51.094;6.760;2023-06-10T08:50:26;100485.81;;;27.10;40.99
70015;BME280;57358;51.094;6.760;2023-06-10T08:52:54;100501.66;;;26.98;41.36
70015;BME280;57358;51.094;6.760;2023-06-10T08:55:29;100502.94;;;27.02;40.96
70015;BME280;57358;51.094;6.760;2023-06-10T08:58:02;100524.00;;;27.35;40.40
70015;BME280;57358;51.094;6.760;2023-06-10T09:00:30;100568.25;;;27.69;40.29
70015;BME280;57358;51.094;6.760;2023-06-10T09:02:58;100498.00;;;27.49;39.66
70015;BME280;57358;51.094;6.760;2023-06-10T09:05:33;100488.47;;;27.53;39.81
70015;BME280;57358;51.094;6.760;2023-06-10T09:08:00;100497.34;;;27.75;39.06
70015;BME280;57358;51.094;6.760;2023-06-10T09:10:26;100523.84;;;27.71;40.15
70015;BME280;57358;51.094;6.760;2023-06-10T09:12:53;100471.69;;;27.51;39.47
70015;BME280;57358;51.094;6.760;2023-06-10T09:15:20;100472.63;;;27.36;39.99
70015;BME280;57358;51.094;6.760;2023-06-10T09:17:46;100547.06;;;27.44;40.43
70015;BME280;57358;51.094;6.760;2023-06-10T09:20:12;100604.16;;;27.76;40.58
70015;BME280;57358;51.094;6.760;2023-06-10T09:22:42;100612.75;;;28.14;39.90
70015;BME280;57358;51.094;6.760;2023-06-10T09:25:11;100518.75;;;28.11;39.02
70015;BME280;57358;51.094;6.760;2023-06-10T09:27:49;100519.06;;;27.95;39.47
70015;BME280;57358;51.094;6.760;2023-06-10T09:32:53;100536.53;;;28.47;38.52
70015;BME280;57358;51.094;6.760;2023-06-10T09:35:20;100526.28;;;28.29;39.19
70015;BME280;57358;51.094;6.760;2023-06-10T09:37:51;100526.41;;;28.14;38.66
70015;BME280;57358;51.094;6.760;2023-06-10T09:40:17;100571.81;;;28.39;38.98
70015;BME280;57358;51.094;6.760;2023-06-10T09:42:44;100568.00;;;28.61;39.02
70015;BME280;57358;51.094;6.760;2023-06-10T09:45:11;100560.53;;;28.70;38.67
70015;BME280;57358;51.094;6.760;2023-06-10T09:47:37;100556.00;;;28.77;38.30
70015;BME280;57358;51.094;6.760;2023-06-10T09:50:04;100413.88;;;27.95;38.25
70015;BME280;57358;51.094;6.760;2023-06-10T09:52:33;100501.13;;;28.63;38.08
70015;BME280;57358;51.094;6.760;2023-06-10T09:55:01;100610.28;;;29.02;38.48
70015;BME280;57358;51.094;6.760;2023-06-10T09:57:32;100420.94;;;28.57;37.06
70015;BME280;57358;51.094;6.760;2023-06-10T10:00:07;100558.00;;;29.50;37.21
70015;BME280;57358;51.094;6.760;2023-06-10T10:02:48;100471.22;;;28.78;37.83
70015;BME280;57358;51.094;6.760;2023-06-10T10:05:17;100467.69;;;28.78;37.17
70015;BME280;57358;51.094;6.760;2023-06-10T10:07:45;100615.19;;;29.40;37.84
70015;BME280;57358;51.094;6.760;2023-06-10T10:10:13;100558.63;;;29.59;36.88
70015;BME280;57358;51.094;6.760;2023-06-10T10:12:41;100521.16;;;29.62;36.39
70015;BME280;57358;51.094;6.760;2023-06-10T10:15:10;100514.94;;;29.62;36.77
70015;BME280;57358;51.094;6.760;2023-06-10T10:17:49;100618.13;;;30.06;36.74
70015;BME280;57358;51.094;6.760;2023-06-10T10:20:24;100488.31;;;29.52;37.16
70015;BME280;57358;51.094;6.760;2023-06-10T10:22:52;100627.06;;;30.13;36.73
70015;BME280;57358;51.094;6.760;2023-06-10T10:25:27;100636.75;;;30.60;36.17
70015;BME280;57358;51.094;6.760;2023-06-10T10:28:04;100498.31;;;29.52;37.21
70015;BME280;57358;51.094;6.760;2023-06-10T10:30:39;100443.19;;;29.46;36.25
70015;BME280;57358;51.094;6.760;2023-06-10T10:33:31;100565.06;;;29.98;36.82
70015;BME280;57358;51.094;6.760;2023-06-10T10:36:00;100483.75;;;29.59;37.00
70015;BME280;57358;51.094;6.760;2023-06-10T10:38:28;100603.97;;;30.03;37.52
70015;BME280;57358;51.094;6.760;2023-06-10T10:40:55;100446.25;;;29.76;35.26
70015;BME280;57358;51.094;6.760;2023-06-10T10:43:27;100574.16;;;30.82;35.33
70015;BME280;57358;51.094;6.760;2023-06-10T10:46:01;100636.03;;;31.87;34.50
70015;BME280;57358;51.094;6.760;2023-06-10T10:48:33;100649.03;;;32.47;33.60
70015;BME280;57358;51.094;6.760;2023-06-10T10:51:01;100580.41;;;32.22;33.58
70015;BME280;57358;51.094;6.760;2023-06-10T10:53:27;100525.94;;;31.73;34.30
70015;BME280;57358;51.094;6.760;2023-06-10T10:56:05;100530.47;;;31.04;35.71
70015;BME280;57358;51.094;6.760;2023-06-10T10:58:33;100498.59;;;30.15;36.74
70015;BME280;57358;51.094;6.760;2023-06-10T11:01:10;100502.53;;;30.13;37.17
70015;BME280;57358;51.094;6.760;2023-06-10T11:03:43;100539.06;;;29.30;39.79
70015;BME280;57358;51.094;6.760;2023-06-10T11:06:15;100580.69;;;29.69;39.35
70015;BME280;57358;51.094;6.760;2023-06-10T11:11:25;100531.94;;;28.89;40.03
70015;BME280;57358;51.094;6.760;2023-06-10T11:16:28;100484.69;;;28.10;41.11
70015;BME280;57358;51.094;6.760;2023-06-10T11:18:56;100492.69;;;28.38;40.02
70015;BME280;57358;51.094;6.760;2023-06-10T11:21:24;100497.34;;;28.64;39.12
70015;BME280;57358;51.094;6.760;2023-06-10T11:23:58;100551.84;;;28.75;40.49
70015;BME280;57358;51.094;6.760;2023-06-10T11:29:03;100489.94;;;29.93;36.25
70015;BME280;57358;51.094;6.760;2023-06-10T11:31:40;100445.28;;;30.16;35.52
70015;BME280;57358;51.094;6.760;2023-06-10T11:34:08;100462.22;;;30.50;35.53
70015;BME280;57358;51.094;6.760;2023-06-10T11:36:37;100562.91;;;31.49;34.87
70015;BME280;57358;51.094;6.760;2023-06-10T11:39:06;100428.75;;;31.01;33.79
70015;BME280;57358;51.094;6.760;2023-06-10T11:41:34;100459.91;;;30.92;34.51
70015;BME280;57358;51.094;6.760;2023-06-10T11:44:08;100429.19;;;30.66;34.44
70015;BME280;57358;51.094;6.760;2023-06-10T11:46:35;100486.91;;;30.67;35.60
70015;BME280;57358;51.094;6.760;2023-06-10T11:49:02;100313.69;;;30.21;33.80
70015;BME280;57358;51.094;6.760;2023-06-10T11:51:35;100403.25;;;30.13;35.34
70015;BME280;57358;51.094;6.760;2023-06-10T11:54:02;100280.78;;;29.41;35.65
70015;BME280;57358;51.094;6.760;2023-06-10T11:56:31;100308.97;;;28.73;37.00
70015;BME280;57358;51.094;6.760;2023-06-10T11:59:02;100398.94;;;29.07;37.10
70015;BME280;57358;51.094;6.760;2023-06-10T12:01:34;100309.81;;;28.54;37.26
70015;BME280;57358;51.094;6.760;2023-06-10T12:04:07;100438.22;;;29.10;38.16
70015;BME280;57358;51.094;6.760;2023-06-10T12:06:43;100445.22;;;29.64;36.70
70015;BME280;57358;51.094;6.760;2023-06-10T12:09:29;100282.09;;;29.18;35.56
70015;BME280;57358;51.094;6.760;2023-06-10T12:12:05;100363.97;;;29.39;36.07
70015;BME280;57358;51.094;6.760;2023-06-10T12:17:23;100318.38;;;29.56;35.06
70015;BME280;57358;51.094;6.760;2023-06-10T12:19:51;100429.13;;;29.96;36.13
70015;BME280;57358;51.094;6.760;2023-06-10T12:22:17;100338.50;;;29.73;35.03
70015;BME280;57358;51.094;6.760;2023-06-10T12:25:02;100354.78;;;30.05;34.69
70015;BME280;57358;51.094;6.760;2023-06-10T12:27:31;100375.84;;;29.96;34.79
70015;BME280;57358;51.094;6.760;2023-06-10T12:29:58;100423.75;;;29.89;36.05
70015;BME280;57358;51.094;6.760;2023-06-10T12:32:41;100382.69;;;29.47;36.56
70015;BME280;57358;51.094;6.760;2023-06-10T12:35:12;100466.25;;;29.75;37.35
70015;BME280;57358;51.094;6.760;2023-06-10T12:37:40;100376.56;;;30.17;33.96
70015;BME280;57358;51.094;6.760;2023-06-10T12:40:09;100416.50;;;29.76;36.84
70015;BME280;57358;51.094;6.760;2023-06-10T12:42:37;100253.13;;;28.54;37.13
70015;BME280;57358;51.094;6.760;2023-06-10T12:45:04;100326.41;;;29.11;36.53
70015;BME280;57358;51.094;6.760;2023-06-10T12:47:35;100541.31;;;30.00;38.11
70015;BME280;57358;51.094;6.760;2023-06-10T12:50:03;100559.16;;;30.34;37.74
70015;BME280;57358;51.094;6.760;2023-06-10T12:52:30;100471.22;;;29.78;37.81
70015;BME280;57358;51.094;6.760;2023-06-10T12:54:57;100465.22;;;29.63;38.01
70015;BME280;57358;51.094;6.760;2023-06-10T12:57:24;100444.22;;;29.38;38.36
70015;BME280;57358;51.094;6.760;2023-06-10T12:59:50;100533.47;;;29.85;38.39
70015;BME280;57358;51.094;6.760;2023-06-10T13:02:19;100517.94;;;30.19;36.80
70015;BME280;57358;51.094;6.760;2023-06-10T13:04:47;100489.66;;;30.08;36.96
70015;BME280;57358;51.094;6.760;2023-06-10T13:07:14;100388.47;;;29.51;37.60
70015;BME280;57358;51.094;6.760;2023-06-10T13:09:42;100481.63;;;29.81;38.08
70015;BME280;57358;51.094;6.760;2023-06-10T13:12:08;100340.72;;;29.04;37.84